Time;durP1;ratioP1;P1;durP2;ratioP2;P2;SDS_P1;SDS_P2;PMS_P1;PMS_P2;Temp;Humidity;BMP_temperature;BMP_pressure;BME280_temperature;BME280_humidity;BME280_pressure;Samples;Min_cycle;Max_cycle;Signal;HPM_P1;HPM_P2
2022/03/06 00:01:21;;;;;;;9.07;6.83;;;2.30;64.80;;;;;;5057461;28;20236;-65
2022/03/06 00:03:48;;;;;;;8.23;5.30;;;2.30;65.80;;;;;;5035492;28;20204;-66
2022/03/06 00:06:16;;;;;;;8.10;5.53;;;2.30;65.30;;;;;;5045207;28;20268;-66
2022/03/06 00:08:43;;;;;;;9.33;5.17;;;2.30;65.60;;;;;;5050193;28;20670;-66
2022/03/06 00:11:10;;;;;;;8.33;5.83;;;2.30;66.00;;;;;;5048828;28;20343;-65
2022/03/06 00:13:37;;;;;;;7.87;5.70;;;2.20;66.30;;;;;;5054605;28;20230;-65
2022/03/06 00:16:04;;;;;;;10.40;6.10;;;2.20;66.50;;;;;;5042330;28;20348;-65
2022/03/06 00:18:35;;;;;;;8.43;5.70;;;2.20;66.60;;;;;;5068160;28;20234;-66
2022/03/06 00:21:03;;;;;;;8.90;5.80;;;2.30;66.60;;;;;;5055268;28;20266;-66
2022/03/06 00:23:30;;;;;;;11.53;6.40;;;2.20;66.40;;;;;;5052831;28;20198;-66
2022/03/06 00:25:57;;;;;;;9.33;5.77;;;2.20;66.60;;;;;;5054996;28;20255;-67
2022/03/06 00:28:23;;;;;;;9.90;6.30;;;2.30;66.70;;;;;;5054790;28;20241;-66
2022/03/06 00:30:50;;;;;;;9.93;6.40;;;2.20;66.70;;;;;;5044823;28;20296;-65
2022/03/06 00:33:17;;;;;;;8.73;6.47;;;2.20;66.70;;;;;;5045790;28;20232;-66
2022/03/06 00:35:46;;;;;;;8.60;5.73;;;2.30;67.00;;;;;;5059679;28;20210;-65
2022/03/06 00:38:13;;;;;;;8.77;6.20;;;2.30;67.10;;;;;;5056303;28;20245;-66
2022/03/06 00:40:41;;;;;;;9.77;6.30;;;2.50;67.40;;;;;;5055064;28;20237;-66
2022/03/06 00:43:09;;;;;;;9.53;6.73;;;2.20;67.40;;;;;;5057474;28;20670;-67
2022/03/06 00:45:36;;;;;;;9.77;6.10;;;2.30;67.60;;;;;;5062779;28;20237;-65
2022/03/06 00:48:02;;;;;;;10.13;6.30;;;2.20;67.60;;;;;;5043760;28;20297;-66
2022/03/06 00:50:30;;;;;;;8.80;6.33;;;2.20;68.70;;;;;;5044745;28;20206;-66
2022/03/06 00:52:59;;;;;;;8.30;6.07;;;2.20;68.00;;;;;;5040925;28;20187;-66
2022/03/06 00:55:26;;;;;;;10.67;6.67;;;2.20;68.00;;;;;;5048369;28;20324;-65
2022/03/06 00:57:52;;;;;;;8.93;6.37;;;2.20;68.00;;;;;;5046857;28;20226;-65
2022/03/06 01:00:20;;;;;;;8.93;6.47;;;2.20;68.00;;;;;;5050932;28;20297;-66
2022/03/06 01:02:47;;;;;;;11.30;6.23;;;2.20;67.70;;;;;;5068881;28;20205;-64
2022/03/06 01:05:14;;;;;;;8.87;6.30;;;2.20;67.50;;;;;;5063620;28;20239;-66
2022/03/06 01:07:40;;;;;;;9.63;6.50;;;2.20;67.50;;;;;;5060229;28;20194;-65
2022/03/06 01:10:10;;;;;;;10.43;6.77;;;2.20;67.50;;;;;;5040556;28;20297;-66
2022/03/06 01:12:37;;;;;;;10.30;6.77;;;2.20;67.60;;;;;;5043982;28;20293;-66
2022/03/06 01:15:04;;;;;;;8.63;6.13;;;2.30;67.90;;;;;;5057277;28;20288;-67
2022/03/06 01:17:31;;;;;;;11.57;6.97;;;2.20;67.60;;;;;;5049920;28;20308;-65
2022/03/06 01:19:58;;;;;;;8.97;6.37;;;2.30;67.60;;;;;;5063249;28;20234;-66
2022/03/06 01:22:25;;;;;;;8.40;6.53;;;2.30;67.60;;;;;;5043904;28;20699;-66
2022/03/06 01:24:52;;;;;;;8.33;6.70;;;2.30;67.60;;;;;;5049277;28;20306;-65
2022/03/06 01:27:20;;;;;;;8.27;6.37;;;2.40;67.70;;;;;;5050450;28;20579;-66
2022/03/06 01:29:47;;;;;;;9.40;7.00;;;2.40;67.50;;;;;;5056482;28;20205;-65
2022/03/06 01:32:14;;;;;;;7.83;6.40;;;2.30;67.20;;;;;;5051189;28;20210;-65
2022/03/06 01:34:41;;;;;;;8.73;6.53;;;2.30;67.10;;;;;;5064117;28;20201;-65
2022/03/06 01:37:08;;;;;;;8.73;6.40;;;2.30;67.00;;;;;;5052335;28;20587;-66
2022/03/06 01:39:35;;;;;;;9.13;6.67;;;2.40;67.10;;;;;;5070925;28;20284;-64
2022/03/06 01:42:02;;;;;;;9.17;6.27;;;2.40;66.90;;;;;;5048834;28;20205;-65
2022/03/06 01:44:31;;;;;;;8.70;5.97;;;2.40;66.60;;;;;;5057083;28;20670;-65
2022/03/06 01:46:58;;;;;;;7.83;5.53;;;2.40;66.60;;;;;;5057456;28;20241;-65
2022/03/06 01:49:24;;;;;;;10.00;6.27;;;2.40;66.50;;;;;;5057982;28;20205;-65
2022/03/06 01:51:51;;;;;;;9.10;6.37;;;2.40;66.40;;;;;;5060736;28;20202;-65
2022/03/06 01:54:18;;;;;;;7.83;5.73;;;2.40;66.40;;;;;;5060067;28;20205;-65
2022/03/06 01:56:45;;;;;;;7.07;5.43;;;2.40;66.30;;;;;;5061793;28;20577;-65
2022/03/06 01:59:12;;;;;;;8.67;5.93;;;2.50;66.20;;;;;;5062347;28;20237;-65
2022/03/06 02:01:40;;;;;;;10.27;5.90;;;2.40;66.20;;;;;;5059024;28;20309;-67
2022/03/06 02:04:07;;;;;;;10.37;6.53;;;2.40;66.20;;;;;;5056013;28;20290;-67
2022/03/06 02:06:35;;;;;;;10.80;6.77;;;2.50;66.40;;;;;;5054994;28;20297;-68
2022/03/06 02:09:03;;;;;;;10.53;6.90;;;2.50;66.50;;;;;;5052940;28;20233;-67
2022/03/06 02:11:30;;;;;;;10.53;6.70;;;2.50;66.50;;;;;;5048672;28;20671;-68
2022/03/06 02:13:57;;;;;;;9.17;6.87;;;2.50;66.70;;;;;;5057028;28;20210;-68
2022/03/06 02:16:24;;;;;;;10.77;7.30;;;2.40;66.70;;;;;;5061173;28;20225;-68
2022/03/06 02:18:52;;;;;;;10.50;7.10;;;2.50;66.90;;;;;;5050284;28;20261;-67
2022/03/06 02:21:20;;;;;;;10.17;7.50;;;2.50;67.10;;;;;;5050585;28;20269;-67
2022/03/06 02:23:47;;;;;;;10.07;7.33;;;2.50;67.10;;;;;;5050031;28;20288;-66
2022/03/06 02:26:14;;;;;;;10.53;7.43;;;2.50;67.30;;;;;;5054123;28;20209;-67
2022/03/06 02:28:42;;;;;;;11.40;7.93;;;2.50;67.40;;;;;;5060030;28;20233;-67
2022/03/06 02:31:11;;;;;;;11.20;7.77;;;2.50;67.60;;;;;;5053950;28;20620;-66
2022/03/06 02:33:38;;;;;;;10.40;7.30;;;2.40;67.70;;;;;;5045059;28;20210;-67
2022/03/06 02:36:06;;;;;;;9.10;7.27;;;2.40;68.20;;;;;;5055727;28;20210;-67
2022/03/06 02:38:35;;;;;;;10.20;7.87;;;2.40;68.30;;;;;;5058803;28;20639;-66
2022/03/06 02:41:01;;;;;;;12.33;8.07;;;2.30;68.30;;;;;;5055039;28;20242;-67
2022/03/06 02:43:28;;;;;;;10.20;7.37;;;2.30;68.30;;;;;;5056176;28;20593;-67
2022/03/06 02:45:55;;;;;;;9.43;7.20;;;2.30;68.30;;;;;;5059158;28;20658;-66
2022/03/06 02:48:22;;;;;;;12.13;7.33;;;2.30;68.30;;;;;;5057000;28;20662;-67
2022/03/06 02:50:51;;;;;;;9.90;7.40;;;2.30;68.20;;;;;;5057446;28;20202;-67
2022/03/06 02:53:22;;;;;;;8.10;6.20;;;2.30;68.20;;;;;;5057054;28;20589;-67
2022/03/06 02:55:51;;;;;;;7.00;5.10;;;2.30;68.20;;;;;;5056811;28;20214;-67
2022/03/06 02:58:18;;;;;;;7.37;5.47;;;2.30;67.70;;;;;;5056247;28;20316;-67
2022/03/06 03:00:45;;;;;;;5.90;5.00;;;2.30;66.20;;;;;;5056171;28;20202;-67
2022/03/06 03:03:12;;;;;;;8.10;5.60;;;2.30;65.80;;;;;;5055740;28;20297;-67
2022/03/06 03:05:39;;;;;;;9.57;6.53;;;2.20;65.50;;;;;;5051610;28;20731;-67
2022/03/06 03:08:06;;;;;;;9.83;6.67;;;2.20;66.10;;;;;;5054769;28;20645;-67
2022/03/06 03:10:33;;;;;;;9.43;6.77;;;2.20;67.00;;;;;;5054421;28;20205;-67
2022/03/06 03:13:01;;;;;;;9.20;7.33;;;2.10;67.90;;;;;;5052542;28;20266;-67
2022/03/06 03:15:28;;;;;;;10.60;6.90;;;2.10;68.10;;;;;;5048782;28;20277;-66
2022/03/06 03:17:56;;;;;;;9.53;6.40;;;2.10;68.00;;;;;;5054596;28;20228;-67
2022/03/06 03:20:22;;;;;;;7.90;6.47;;;2.10;68.50;;;;;;5051538;28;20828;-68
2022/03/06 03:22:49;;;;;;;8.63;6.40;;;2.00;68.90;;;;;;5054547;28;20221;-68
2022/03/06 03:25:16;;;;;;;8.10;6.37;;;2.10;69.10;;;;;;5058408;28;20632;-67
2022/03/06 03:27:43;;;;;;;7.23;5.90;;;2.10;68.70;;;;;;5045212;28;20210;-66
2022/03/06 03:30:12;;;;;;;8.33;6.27;;;2.10;68.00;;;;;;5061839;28;20220;-66
2022/03/06 03:32:40;;;;;;;8.07;6.20;;;2.10;68.00;;;;;;5054242;28;20206;-66
2022/03/06 03:35:08;;;;;;;8.67;6.30;;;2.10;68.00;;;;;;5054547;28;20634;-67
2022/03/06 03:37:35;;;;;;;9.30;6.33;;;2.10;68.00;;;;;;5059506;28;20218;-67
2022/03/06 03:40:01;;;;;;;7.83;6.40;;;2.20;68.10;;;;;;5054613;28;20711;-67
2022/03/06 03:42:28;;;;;;;7.07;5.70;;;2.20;68.10;;;;;;5054907;28;20601;-67
2022/03/06 03:44:55;;;;;;;6.37;4.93;;;2.20;68.10;;;;;;5056821;28;20316;-66
2022/03/06 03:47:24;;;;;;;5.83;4.47;;;2.20;67.20;;;;;;5058500;28;20255;-67
2022/03/06 03:49:51;;;;;;;6.47;4.60;;;2.20;66.00;;;;;;5066630;28;20205;-67
2022/03/06 03:52:18;;;;;;;6.90;6.07;;;2.20;65.40;;;;;;5056880;28;20654;-67
2022/03/06 03:54:45;;;;;;;8.07;6.13;;;2.30;65.30;;;;;;5053909;28;20212;-68
2022/03/06 03:57:13;;;;;;;6.70;5.13;;;2.30;65.80;;;;;;5051406;28;20201;-66
2022/03/06 03:59:40;;;;;;;7.67;5.60;;;2.20;65.90;;;;;;5062006;28;20325;-67
2022/03/06 04:02:07;;;;;;;7.87;5.57;;;2.20;66.10;;;;;;5061755;28;20202;-66
2022/03/06 04:04:35;;;;;;;7.50;5.27;;;2.20;66.10;;;;;;5065280;28;20210;-68
2022/03/06 04:07:02;;;;;;;7.37;4.87;;;2.10;65.70;;;;;;5064566;28;20210;-66
2022/03/06 04:09:29;;;;;;;10.53;6.33;;;2.10;65.80;;;;;;5065020;28;20228;-67
2022/03/06 04:11:56;;;;;;;7.03;5.57;;;2.10;65.90;;;;;;5053811;28;20220;-66
2022/03/06 04:14:23;;;;;;;7.77;5.80;;;2.20;66.10;;;;;;5056853;28;20256;-66
2022/03/06 04:16:50;;;;;;;7.43;6.07;;;2.10;66.10;;;;;;5058602;28;20269;-66
2022/03/06 04:19:16;;;;;;;6.17;5.40;;;2.10;66.30;;;;;;5056629;28;20305;-66
2022/03/06 04:21:45;;;;;;;6.70;5.53;;;2.10;66.30;;;;;;5056367;28;20718;-66
2022/03/06 04:24:12;;;;;;;8.17;6.07;;;2.10;66.50;;;;;;5060610;28;20681;-66
2022/03/06 04:26:38;;;;;;;6.57;5.30;;;2.20;66.50;;;;;;5062920;28;20240;-68
2022/03/06 04:29:05;;;;;;;7.00;5.63;;;2.20;66.40;;;;;;5057496;28;20205;-67
2022/03/06 04:31:32;;;;;;;7.57;5.20;;;2.20;66.40;;;;;;5050065;28;20301;-67
2022/03/06 04:33:59;;;;;;;9.20;5.53;;;2.20;66.60;;;;;;5038939;28;20207;-66
2022/03/06 04:36:26;;;;;;;5.97;4.83;;;2.20;66.90;;;;;;5048639;28;20198;-67
2022/03/06 04:38:55;;;;;;;6.53;5.07;;;2.20;66.70;;;;;;5061805;28;20223;-67
2022/03/06 04:41:21;;;;;;;6.50;5.13;;;2.10;66.40;;;;;;5050067;28;20293;-66
2022/03/06 04:43:48;;;;;;;6.47;4.70;;;2.10;66.20;;;;;;5048913;28;20344;-67
2022/03/06 04:46:15;;;;;;;8.47;4.40;;;2.10;66.00;;;;;;5048269;28;20325;-67
2022/03/06 04:48:42;;;;;;;5.80;3.90;;;2.10;65.60;;;;;;5043699;28;20259;-66
2022/03/06 04:51:09;;;;;;;4.90;4.33;;;2.10;65.40;;;;;;5045771;28;20202;-67
2022/03/06 04:53:37;;;;;;;6.37;4.20;;;2.10;65.90;;;;;;5052287;28;20228;-67
2022/03/06 04:56:06;;;;;;;6.50;4.00;;;2.10;64.60;;;;;;5052745;28;20210;-67
2022/03/06 04:58:33;;;;;;;3.93;3.20;;;2.10;64.60;;;;;;5051943;28;20630;-67
2022/03/06 05:01:00;;;;;;;4.07;3.50;;;2.10;64.10;;;;;;5045162;28;20565;-66
2022/03/06 05:03:27;;;;;;;5.63;3.97;;;2.00;63.30;;;;;;5052516;28;20206;-67
2022/03/06 05:05:54;;;;;;;5.83;3.80;;;2.00;62.80;;;;;;5052373;28;20289;-66
2022/03/06 05:08:20;;;;;;;4.20;3.70;;;1.90;62.60;;;;;;5072054;28;20292;-67
2022/03/06 05:10:47;;;;;;;6.53;3.67;;;1.90;63.40;;;;;;5054557;28;20286;-66
2022/03/06 05:13:15;;;;;;;4.87;3.90;;;1.90;62.60;;;;;;5049628;28;20289;-67
2022/03/06 05:15:42;;;;;;;4.37;3.50;;;1.90;62.60;;;;;;5045844;28;20213;-67
2022/03/06 05:18:09;;;;;;;4.00;3.30;;;1.90;62.80;;;;;;5052392;28;20206;-67
2022/03/06 05:20:36;;;;;;;5.90;3.70;;;1.90;62.80;;;;;;5037343;28;20326;-67
2022/03/06 05:23:03;;;;;;;4.30;3.77;;;1.90;62.90;;;;;;5046926;28;20208;-68
2022/03/06 05:25:30;;;;;;;6.07;4.07;;;1.90;63.00;;;;;;5052025;28;20228;-67
2022/03/06 05:27:57;;;;;;;3.73;3.37;;;1.90;62.90;;;;;;5052309;28;20206;-67
2022/03/06 05:30:25;;;;;;;3.80;3.37;;;1.90;62.80;;;;;;5048159;28;20234;-67
2022/03/06 05:32:52;;;;;;;4.63;3.40;;;1.90;62.70;;;;;;5052527;28;20208;-67
2022/03/06 05:35:19;;;;;;;7.20;3.70;;;1.90;62.70;;;;;;5045598;28;20265;-66
2022/03/06 05:37:46;;;;;;;5.17;3.47;;;1.90;62.60;;;;;;5051607;28;20640;-67
2022/03/06 05:40:13;;;;;;;4.10;3.40;;;1.90;62.70;;;;;;5046724;28;20258;-68
2022/03/06 05:42:40;;;;;;;5.23;3.83;;;1.90;62.80;;;;;;5051333;28;20648;-67
2022/03/06 05:45:07;;;;;;;5.57;3.30;;;1.90;62.60;;;;;;5051678;28;20246;-67
2022/03/06 05:47:36;;;;;;;5.33;3.73;;;2.00;62.80;;;;;;5050314;28;20240;-66
2022/03/06 05:50:04;;;;;;;5.10;3.23;;;2.00;62.80;;;;;;5040644;28;20206;-67
2022/03/06 05:52:31;;;;;;;4.17;3.60;;;2.00;62.80;;;;;;5051710;28;20206;-66
2022/03/06 05:54:58;;;;;;;5.50;3.47;;;2.10;62.80;;;;;;5052039;28;20206;-67
2022/03/06 05:57:25;;;;;;;4.93;4.20;;;2.00;62.50;;;;;;5055981;28;20655;-68
2022/03/06 05:59:52;;;;;;;7.07;4.30;;;2.10;62.40;;;;;;5066333;28;20613;-68
2022/03/06 06:02:19;;;;;;;5.00;3.73;;;2.10;62.30;;;;;;5054335;28;20210;-67
2022/03/06 06:04:47;;;;;;;7.97;3.80;;;2.10;62.20;;;;;;5055438;28;20210;-67
2022/03/06 06:07:14;;;;;;;6.13;3.63;;;2.20;62.20;;;;;;5052455;28;20593;-67
2022/03/06 06:09:42;;;;;;;5.43;3.93;;;2.20;62.00;;;;;;5057863;28;20201;-67
2022/03/06 06:12:10;;;;;;;6.07;3.87;;;2.20;61.60;;;;;;5055246;28;20319;-67
2022/03/06 06:14:37;;;;;;;5.83;3.97;;;2.10;61.10;;;;;;5054237;28;20586;-67
2022/03/06 06:17:04;;;;;;;6.60;3.97;;;2.10;61.10;;;;;;5050536;28;20256;-67
2022/03/06 06:19:31;;;;;;;5.83;3.97;;;2.10;60.90;;;;;;5051433;28;20310;-68
2022/03/06 06:21:59;;;;;;;4.50;3.97;;;2.10;61.10;;;;;;5055597;28;20690;-68
2022/03/06 06:24:26;;;;;;;6.50;3.80;;;2.10;61.10;;;;;;5044027;28;20570;-67
2022/03/06 06:26:55;;;;;;;5.53;4.20;;;2.10;61.40;;;;;;5053821;28;20626;-67
2022/03/06 06:29:22;;;;;;;6.57;4.53;;;2.10;61.40;;;;;;5062368;28;20663;-68
2022/03/06 06:31:49;;;;;;;5.40;3.60;;;2.30;61.40;;;;;;5049669;28;20217;-67
2022/03/06 06:34:16;;;;;;;5.00;4.00;;;2.40;61.50;;;;;;5053249;28;20305;-67
2022/03/06 06:36:43;;;;;;;4.50;3.83;;;2.40;61.20;;;;;;5055332;28;20206;-66
2022/03/06 06:39:11;;;;;;;7.20;4.60;;;2.50;61.20;;;;;;5041091;28;20227;-67
2022/03/06 06:41:38;;;;;;;4.97;4.10;;;2.60;61.30;;;;;;5055385;28;20216;-67
2022/03/06 06:44:05;;;;;;;5.63;4.47;;;2.70;61.40;;;;;;5054531;28;20698;-66
2022/03/06 06:46:33;;;;;;;5.17;4.20;;;2.90;61.60;;;;;;5049377;28;20242;-68
2022/03/06 06:49:00;;;;;;;5.90;4.30;;;3.10;61.50;;;;;;5042734;28;20305;-67
2022/03/06 06:51:27;;;;;;;5.33;3.60;;;3.30;60.30;;;;;;5047039;28;20670;-67
2022/03/06 06:53:54;;;;;;;4.50;3.70;;;3.30;60.00;;;;;;5061410;28;20194;-66
2022/03/06 06:56:23;;;;;;;4.43;3.57;;;3.40;59.70;;;;;;5058953;28;20236;-67
2022/03/06 06:58:50;;;;;;;5.20;4.20;;;3.40;59.20;;;;;;5053523;28;20630;-66
2022/03/06 07:01:17;;;;;;;6.07;4.00;;;3.30;59.10;;;;;;5046779;28;20296;-67
2022/03/06 07:03:44;;;;;;;4.47;3.47;;;3.20;58.90;;;;;;5039696;28;20297;-65
2022/03/06 07:06:11;;;;;;;5.23;3.93;;;3.20;59.00;;;;;;5051666;28;20624;-67
2022/03/06 07:08:38;;;;;;;5.10;4.27;;;3.20;59.00;;;;;;5058235;28;20647;-69
2022/03/06 07:11:05;;;;;;;4.63;3.60;;;3.20;59.00;;;;;;5055783;28;20201;-69
2022/03/06 07:13:33;;;;;;;5.63;4.43;;;3.30;59.10;;;;;;5059249;28;20297;-70
2022/03/06 07:16:00;;;;;;;4.53;3.90;;;3.40;59.20;;;;;;5047887;28;20220;-69
2022/03/06 07:18:26;;;;;;;6.30;4.20;;;3.50;59.30;;;;;;5070147;28;20657;-70
2022/03/06 07:20:53;;;;;;;5.10;4.37;;;3.60;59.20;;;;;;5056758;28;20708;-69
2022/03/06 07:23:20;;;;;;;5.30;4.00;;;3.70;59.00;;;;;;5051551;28;20202;-69
2022/03/06 07:25:47;;;;;;;4.80;3.60;;;3.90;58.70;;;;;;5061971;28;20575;-69
2022/03/06 07:28:14;;;;;;;5.03;4.10;;;4.10;58.40;;;;;;5059564;28;20219;-69
2022/03/06 07:30:43;;;;;;;6.37;3.77;;;4.50;58.40;;;;;;5065034;28;20198;-68
2022/03/06 07:33:09;;;;;;;4.00;3.20;;;3.70;56.40;;;;;;5040759;28;20206;-70
2022/03/06 07:35:36;;;;;;;6.43;4.17;;;5.10;56.40;;;;;;5049510;28;20213;-69
2022/03/06 07:38:03;;;;;;;4.00;3.37;;;5.10;55.60;;;;;;5042566;28;20259;-69
2022/03/06 07:40:30;;;;;;;4.60;3.47;;;5.20;55.10;;;;;;5053154;28;20633;-69
2022/03/06 07:42:57;;;;;;;5.53;3.93;;;5.10;54.70;;;;;;5054595;28;20727;-68
2022/03/06 07:45:24;;;;;;;7.00;3.87;;;4.90;54.60;;;;;;5053962;28;20238;-70
2022/03/06 07:47:52;;;;;;;7.00;4.57;;;4.80;54.60;;;;;;5062305;28;20279;-71
2022/03/06 07:50:20;;;;;;;4.60;4.03;;;4.80;54.50;;;;;;5049413;28;20202;-69
2022/03/06 07:52:47;;;;;;;5.30;3.70;;;4.70;54.30;;;;;;5071556;28;20654;-70
2022/03/06 07:55:14;;;;;;;4.53;3.70;;;4.70;54.20;;;;;;5065714;28;20293;-69
2022/03/06 07:57:41;;;;;;;5.03;3.40;;;4.60;54.10;;;;;;5054364;28;20729;-71
2022/03/06 08:00:11;;;;;;;5.77;4.03;;;4.70;54.30;;;;;;5050780;28;20321;-70
2022/03/06 08:02:38;;;;;;;6.07;4.30;;;4.70;54.20;;;;;;5056164;28;20296;-69
2022/03/06 08:05:08;;;;;;;5.77;4.33;;;4.80;54.10;;;;;;5059040;28;20205;-70
2022/03/06 08:07:35;;;;;;;5.97;3.93;;;4.70;53.30;;;;;;5051925;28;20284;-70
2022/03/06 08:10:04;;;;;;;6.37;4.03;;;4.70;53.50;;;;;;5050329;28;20644;-69
2022/03/06 08:12:31;;;;;;;5.17;4.13;;;4.70;53.50;;;;;;5047873;28;20249;-71
2022/03/06 08:14:58;;;;;;;4.43;3.83;;;3.80;52.80;;;;;;5049439;28;20599;-68
2022/03/06 08:17:25;;;;;;;6.87;4.07;;;4.80;53.40;;;;;;5055324;28;20206;-71
2022/03/06 08:19:53;;;;;;;5.90;4.80;;;4.80;53.40;;;;;;5062841;28;20226;-70
2022/03/06 08:22:22;;;;;;;7.43;4.37;;;4.90;53.10;;;;;;5058398;28;20235;-69
2022/03/06 08:24:49;;;;;;;6.23;4.53;;;5.00;53.00;;;;;;5062417;28;20209;-68
2022/03/06 08:27:16;;;;;;;6.23;4.50;;;5.10;52.90;;;;;;5047504;28;20304;-70
2022/03/06 08:29:44;;;;;;;5.77;4.43;;;5.10;52.40;;;;;;5058676;28;20554;-68
2022/03/06 08:32:10;;;;;;;6.10;4.33;;;5.20;52.30;;;;;;5053165;28;20210;-69
2022/03/06 08:34:37;;;;;;;6.23;4.77;;;5.30;52.40;;;;;;5059346;28;20209;-68
2022/03/06 08:37:05;;;;;;;6.00;4.33;;;5.30;52.10;;;;;;5051179;28;20210;-69
2022/03/06 08:39:34;;;;;;;5.90;4.63;;;5.30;52.20;;;;;;5041621;28;20225;-69
2022/03/06 08:42:01;;;;;;;6.67;4.63;;;5.40;52.20;;;;;;5056706;28;20217;-69
2022/03/06 08:44:28;;;;;;;5.77;4.63;;;5.60;52.30;;;;;;5052906;28;20592;-71
2022/03/06 08:46:55;;;;;;;5.17;4.07;;;5.60;51.90;;;;;;5048356;28;20274;-69
2022/03/06 08:49:22;;;;;;;5.77;4.47;;;5.70;51.80;;;;;;5048672;28;20205;-71
2022/03/06 08:51:49;;;;;;;5.80;4.33;;;5.70;51.80;;;;;;5044247;28;20294;-71
2022/03/06 08:54:16;;;;;;;6.60;4.40;;;6.00;52.10;;;;;;5053076;28;20218;-69
2022/03/06 08:56:44;;;;;;;5.03;4.00;;;6.30;52.00;;;;;;5050081;28;20213;-69
2022/03/06 08:59:11;;;;;;;6.03;4.13;;;6.40;51.10;;;;;;5040125;28;20206;-69
2022/03/06 09:01:38;;;;;;;6.57;4.03;;;6.50;51.00;;;;;;5056163;28;20234;-70
2022/03/06 09:04:05;;;;;;;5.27;4.00;;;6.90;51.30;;;;;;5048051;28;20253;-71
2022/03/06 09:06:32;;;;;;;5.37;3.70;;;7.20;50.40;;;;;;5054160;28;20606;-70
2022/03/06 09:08:58;;;;;;;5.13;3.80;;;7.50;50.10;;;;;;5053250;28;20296;-70
2022/03/06 09:11:25;;;;;;;5.30;3.63;;;7.50;49.80;;;;;;5040221;28;20202;-70
2022/03/06 09:13:53;;;;;;;5.43;3.90;;;7.60;49.80;;;;;;5047165;28;20210;-71
2022/03/06 09:16:20;;;;;;;6.30;3.70;;;7.80;49.50;;;;;;5054105;28;20209;-72
2022/03/06 09:18:47;;;;;;;5.37;3.80;;;7.90;49.10;;;;;;5054305;28;20210;-72
2022/03/06 09:21:15;;;;;;;5.17;3.70;;;8.00;48.80;;;;;;5053779;28;20603;-69
2022/03/06 09:23:42;;;;;;;5.07;3.87;;;8.00;48.00;;;;;;5045242;28;20277;-71
2022/03/06 09:26:09;;;;;;;6.77;3.80;;;7.80;47.40;;;;;;5041988;28;20647;-72
2022/03/06 09:28:36;;;;;;;4.43;3.40;;;7.70;48.00;;;;;;5045306;28;20209;-72
2022/03/06 09:31:04;;;;;;;5.33;3.70;;;7.50;47.70;;;;;;5038327;28;20209;-73
2022/03/06 09:33:31;;;;;;;4.37;3.60;;;7.40;47.50;;;;;;5054094;28;20237;-70
2022/03/06 09:35:58;;;;;;;5.33;4.10;;;7.30;47.60;;;;;;5062024;28;20241;-70
2022/03/06 09:38:25;;;;;;;4.77;3.60;;;7.10;47.70;;;;;;5064972;28;20221;-69
2022/03/06 09:40:55;;;;;;;4.33;3.33;;;7.00;48.20;;;;;;5056078;28;20661;-68
2022/03/06 09:43:22;;;;;;;4.73;3.67;;;6.90;48.30;;;;;;5052079;28;20659;-70
2022/03/06 09:45:49;;;;;;;5.20;3.50;;;6.80;48.30;;;;;;5060096;28;20324;-72
2022/03/06 09:48:18;;;;;;;4.17;3.27;;;6.60;49.30;;;;;;5056310;28;20293;-72
2022/03/06 09:50:46;;;;;;;7.00;3.30;;;6.60;49.10;;;;;;5042729;28;20212;-72
2022/03/06 09:53:13;;;;;;;4.40;3.30;;;6.60;49.60;;;;;;5057960;28;20217;-72
2022/03/06 09:55:40;;;;;;;4.20;3.47;;;6.50;49.10;;;;;;5058549;28;20297;-71
2022/03/06 09:58:07;;;;;;;6.77;3.43;;;6.50;49.10;;;;;;5059542;28;20216;-72
2022/03/06 10:00:34;;;;;;;4.87;3.50;;;6.40;49.50;;;;;;5052886;28;20635;-69
2022/03/06 10:03:03;;;;;;;4.07;3.67;;;6.40;49.80;;;;;;5051524;28;20260;-72
2022/03/06 10:05:33;;;;;;;4.73;3.77;;;6.40;49.70;;;;;;5056792;28;20286;-71
2022/03/06 10:08:33;;;;;;;9.17;4.40;;;6.30;49.80;;;;;;5064474;28;20584;-72
2022/03/06 10:11:01;;;;;;;5.30;3.70;;;6.30;51.00;;;;;;5017221;28;20290;-71
2022/03/06 10:13:30;;;;;;;4.30;3.77;;;6.30;51.60;;;;;;5023224;28;20691;-70
2022/03/06 10:16:05;;;;;;;6.30;4.00;;;6.10;52.50;;;;;;5029768;28;20206;-72
2022/03/06 10:18:34;;;;;;;5.80;3.87;;;6.00;53.70;;;;;;5051386;28;20562;-71
2022/03/06 10:21:16;;;;;;;6.33;4.80;;;6.10;54.40;;;;;;5059398;28;20316;-70
2022/03/06 10:23:43;;;;;;;7.47;4.27;;;6.30;53.60;;;;;;5057305;28;20261;-71
2022/03/06 10:26:12;;;;;;;4.70;3.80;;;6.40;53.20;;;;;;5072421;28;20204;-71
2022/03/06 10:28:51;;;;;;;4.17;3.77;;;6.50;53.30;;;;;;5067747;28;20301;-71
2022/03/06 10:31:19;;;;;;;5.87;3.60;;;6.60;52.30;;;;;;5057181;28;20710;-71
2022/03/06 10:34:02;;;;;;;5.13;3.60;;;6.70;52.20;;;;;;5056571;28;20214;-72
2022/03/06 10:36:39;;;;;;;5.20;3.70;;;6.80;51.90;;;;;;5065947;28;20291;-71
2022/03/06 10:39:12;;;;;;;3.80;3.30;;;6.80;51.80;;;;;;5041621;28;20203;-71
2022/03/06 10:41:41;;;;;;;6.83;3.90;;;6.90;51.40;;;;;;5055993;28;20248;-71
2022/03/06 10:44:10;;;;;;;4.17;3.20;;;6.90;51.10;;;;;;5055939;28;20292;-72
2022/03/06 10:46:39;;;;;;;6.63;3.90;;;7.00;50.80;;;;;;5056038;28;20464;-71
2022/03/06 10:49:13;;;;;;;6.10;3.93;;;7.00;50.20;;;;;;5057346;28;20215;-70
2022/03/06 10:51:43;;;;;;;4.93;3.83;;;7.00;50.30;;;;;;5049483;28;20194;-72
2022/03/06 10:54:13;;;;;;;4.97;3.97;;;7.00;49.80;;;;;;5054703;28;20300;-70
2022/03/06 10:56:40;;;;;;;4.50;4.10;;;7.00;50.30;;;;;;5057518;28;20197;-71
2022/03/06 10:59:07;;;;;;;4.10;3.57;;;7.10;50.10;;;;;;5056960;28;20662;-71
2022/03/06 11:01:36;;;;;;;4.30;3.33;;;7.20;50.40;;;;;;5057139;28;20329;-71
2022/03/06 11:04:04;;;;;;;4.80;3.77;;;7.30;50.50;;;;;;5056597;28;20210;-70
2022/03/06 11:06:39;;;;;;;5.83;3.73;;;7.50;50.60;;;;;;5056970;28;20202;-71
2022/03/06 11:09:11;;;;;;;4.40;3.57;;;7.60;50.70;;;;;;5060212;28;20684;-72
2022/03/06 11:11:40;;;;;;;5.17;3.80;;;9.20;59.10;;;;;;5066032;28;20553;-71
2022/03/06 11:14:07;;;;;;;3.60;3.07;;;12.60;51.50;;;;;;5065914;28;20292;-73
2022/03/06 11:16:37;;;;;;;3.97;3.20;;;15.70;43.20;;;;;;5052975;28;20229;-71
2022/03/06 11:19:04;;;;;;;3.93;3.17;;;17.00;38.70;;;;;;5067420;28;20202;-72
2022/03/06 11:21:34;;;;;;;5.23;3.67;;;16.70;35.60;;;;;;5067657;28;20294;-71
2022/03/06 11:24:07;;;;;;;4.17;3.10;;;16.50;37.10;;;;;;5068583;28;20206;-72
2022/03/06 11:26:59;;;;;;;5.93;3.50;;;17.60;35.50;;;;;;5045358;28;20219;-73
2022/03/06 11:29:50;;;;;;;4.70;3.77;;;18.00;33.30;;;;;;5056476;28;20285;-73
2022/03/06 11:32:25;;;;;;;4.43;3.00;;;16.80;31.90;;;;;;5056575;28;20251;-73
2022/03/06 11:34:53;;;;;;;5.17;3.20;;;15.40;32.50;;;;;;5056343;28;20232;-72
2022/03/06 11:37:21;;;;;;;5.10;3.43;;;14.20;34.20;;;;;;5054260;28;20620;-72
2022/03/06 11:39:50;;;;;;;4.53;3.37;;;13.30;35.10;;;;;;5052518;28;20744;-72
2022/03/06 11:42:56;;;;;;;4.97;3.63;;;12.30;35.40;;;;;;5051622;28;20233;-70
2022/03/06 11:45:59;;;;;;;4.00;3.60;;;11.50;36.30;;;;;;5055526;28;20718;-72
2022/03/06 11:49:10;;;;;;;4.47;3.50;;;10.80;37.00;;;;;;5038559;28;20221;-72
2022/03/06 11:51:49;;;;;;;5.03;3.97;;;10.20;37.90;;;;;;5043073;28;20239;-71
2022/03/06 11:54:24;;;;;;;5.53;3.27;;;9.90;39.40;;;;;;5039117;28;20206;-70
2022/03/06 11:56:57;;;;;;;5.43;3.27;;;9.80;39.50;;;;;;5050063;28;20678;-69
2022/03/06 11:59:34;;;;;;;5.77;3.80;;;9.60;39.80;;;;;;5051822;28;20297;-70
2022/03/06 12:02:05;;;;;;;5.73;3.53;;;9.40;40.30;;;;;;5044858;28;20221;-69
2022/03/06 12:04:35;;;;;;;4.30;3.60;;;9.20;39.70;;;;;;5051385;28;20244;-68
2022/03/06 12:07:04;;;;;;;5.47;3.87;;;8.90;40.00;;;;;;5051711;28;20202;-70
2022/03/06 12:09:33;;;;;;;5.90;4.23;;;8.70;40.50;;;;;;5049398;28;20241;-67
2022/03/06 12:12:02;;;;;;;3.87;3.20;;;8.60;41.70;;;;;;5038509;28;20206;-71
2022/03/06 12:14:34;;;;;;;5.57;3.73;;;9.30;41.50;;;;;;5053803;28;20674;-69
2022/03/06 12:17:38;;;;;;;5.00;3.87;;;9.50;40.50;;;;;;5049746;28;20209;-68
2022/03/06 12:20:42;;;;;;;4.53;3.60;;;9.40;40.00;;;;;;5052823;28;20213;-69
2022/03/06 12:23:22;;;;;;;5.27;3.27;;;9.20;40.10;;;;;;5038438;28;20252;-68
2022/03/06 12:25:54;;;;;;;4.40;3.13;;;9.10;40.30;;;;;;5054809;28;20193;-71
2022/03/06 12:28:38;;;;;;;6.73;3.90;;;8.80;40.20;;;;;;5051657;28;20205;-69
2022/03/06 12:31:32;;;;;;;4.53;3.50;;;8.50;40.70;;;;;;5044767;28;20199;-67
2022/03/06 12:34:00;;;;;;;5.37;3.00;;;8.10;41.40;;;;;;5044119;28;20325;-67
2022/03/06 12:36:27;;;;;;;3.97;3.23;;;8.40;42.70;;;;;;5048180;28;20212;-70
2022/03/06 12:39:01;;;;;;;4.10;2.83;;;10.40;46.30;;;;;;5052122;28;20205;-70
2022/03/06 12:41:28;;;;;;;5.67;3.20;;;13.10;40.30;;;;;;5065537;28;20224;-68
2022/03/06 12:44:06;;;;;;;5.27;3.97;;;15.40;37.70;;;;;;5046765;28;20198;-70
2022/03/06 12:46:34;;;;;;;4.97;3.77;;;17.80;35.10;;;;;;5048430;28;20315;-70
2022/03/06 12:49:01;;;;;;;3.90;3.40;;;20.10;33.00;;;;;;5038428;28;20309;-71
2022/03/06 12:51:38;;;;;;;5.07;4.43;;;21.10;29.70;;;;;;5053739;28;20233;-70
2022/03/06 12:54:08;;;;;;;4.63;3.70;;;20.50;28.80;;;;;;5054436;28;20284;-71
2022/03/06 12:56:39;;;;;;;5.13;3.47;;;20.50;28.40;;;;;;5049409;28;20225;-72
2022/03/06 12:59:10;;;;;;;4.20;3.77;;;19.80;28.40;;;;;;5049132;28;20206;-72
2022/03/06 13:01:40;;;;;;;4.47;3.57;;;18.70;28.10;;;;;;5055328;28;20218;-69
2022/03/06 13:04:08;;;;;;;5.87;4.17;;;17.10;28.80;;;;;;5056849;28;20205;-70